Time;durP1;ratioP1;P1;durP2;ratioP2;P2;SDS_P1;SDS_P2;PMS_P1;PMS_P2;Temp;Humidity;BMP_temperature;BMP_pressure;BME280_temperature;BME280_humidity;BME280_pressure;Samples;Min_cycle;Max_cycle;Signal;HPM_P1;HPM_P2
2023/11/23 00:01:04;;;;;;;0.60;0.60;;;;;;;7.80;100.00;98947.47;5067443;28;20032;-63
2023/11/23 00:03:29;;;;;;;0.40;0.40;;;;;;;7.75;100.00;98938.97;5067435;28;20017;-63
2023/11/23 00:05:55;;;;;;;0.40;0.40;;;;;;;7.71;100.00;98932.16;5067213;28;20084;-64
2023/11/23 00:08:20;;;;;;;0.40;0.40;;;;;;;7.67;100.00;98934.81;5067025;28;20045;-64
2023/11/23 00:10:46;;;;;;;2.40;2.30;;;;;;;7.68;100.00;98927.91;5067257;28;20032;-64
2023/11/23 00:13:11;;;;;;;0.40;0.40;;;;;;;7.75;100.00;98951.88;5067141;28;20029;-64
2023/11/23 00:15:36;;;;;;;0.40;0.40;;;;;;;7.82;99.92;98958.63;5067225;28;20408;-65
2023/11/23 00:18:02;;;;;;;0.50;0.50;;;;;;;7.81;100.00;98937.09;5048985;28;20020;-65
2023/11/23 00:20:27;;;;;;;0.30;0.30;;;;;;;7.84;99.90;98951.72;5066918;28;20029;-65
2023/11/23 00:22:53;;;;;;;0.40;0.40;;;;;;;7.83;99.96;98934.50;5067100;28;20021;-64
2023/11/23 00:25:18;;;;;;;1.15;1.15;;;;;;;7.86;99.74;98902.59;5066792;28;20017;-65
2023/11/23 00:27:43;;;;;;;0.40;0.40;;;;;;;7.87;99.85;98902.56;5049035;28;20017;-66
2023/11/23 00:30:09;;;;;;;0.40;0.40;;;;;;;7.87;99.93;98912.88;5066935;28;20511;-66
2023/11/23 00:32:35;;;;;;;0.40;0.40;;;;;;;7.92;99.87;98892.13;5066532;28;20133;-66
2023/11/23 00:35:00;;;;;;;0.40;0.40;;;;;;;7.96;99.93;98893.75;5066957;28;20031;-67
2023/11/23 00:37:25;;;;;;;0.40;0.40;;;;;;;7.90;99.98;98884.41;5066752;28;20055;-67
2023/11/23 00:39:51;;;;;;;0.50;0.50;;;;;;;8.00;99.98;98886.78;5066705;28;20051;-67
2023/11/23 00:42:16;;;;;;;0.40;0.40;;;;;;;8.04;99.90;98896.16;5048690;28;20115;-65
2023/11/23 00:44:41;;;;;;;0.60;0.60;;;;;;;8.09;99.54;98893.44;5066387;28;20028;-68
2023/11/23 00:47:07;;;;;;;0.40;0.40;;;;;;;8.05;99.64;98879.78;5066709;28;20025;-67
2023/11/23 00:49:35;;;;;;;4.22;3.90;;;;;;;8.06;99.63;98874.56;5048369;28;20021;-67
2023/11/23 00:52:01;;;;;;;0.40;0.40;;;;;;;8.08;99.92;98881.44;5066397;28;20029;-68
2023/11/23 00:54:27;;;;;;;0.40;0.40;;;;;;;8.10;99.56;98870.16;5048335;28;20027;-69
2023/11/23 00:56:53;;;;;;;0.40;0.40;;;;;;;8.11;99.70;98866.72;5066308;28;20025;-67
2023/11/23 00:59:18;;;;;;;0.30;0.30;;;;;;;8.10;99.66;98862.41;5064958;28;20104;-68
2023/11/23 01:01:44;;;;;;;0.30;0.30;;;;;;;8.13;99.30;98872.66;5066389;28;20362;-66
2023/11/23 01:04:10;;;;;;;0.40;0.40;;;;;;;8.13;99.65;98858.91;5066215;28;20108;-68
2023/11/23 01:06:35;;;;;;;1.08;1.02;;;;;;;8.12;99.44;98858.06;5066304;28;20317;-67
2023/11/23 01:09:00;;;;;;;0.40;0.40;;;;;;;8.12;99.50;98858.06;5065804;28;20104;-68
2023/11/23 01:11:26;;;;;;;0.30;0.30;;;;;;;8.15;99.35;98862.28;5065901;28;20029;-68
2023/11/23 01:13:51;;;;;;;0.40;0.40;;;;;;;8.11;99.46;98843.44;5065938;28;20029;-68
2023/11/23 01:16:17;;;;;;;0.40;0.40;;;;;;;8.00;99.61;98817.00;5066022;28;20032;-69
2023/11/23 01:18:42;;;;;;;0.40;0.40;;;;;;;8.07;99.67;98800.44;5065829;28;20427;-68
2023/11/23 01:21:08;;;;;;;0.35;0.35;;;;;;;8.08;99.69;98821.97;5065786;28;20029;-68
2023/11/23 01:23:33;;;;;;;0.30;0.30;;;;;;;8.05;99.73;98830.66;5047892;28;20032;-68
2023/11/23 01:25:59;;;;;;;0.30;0.30;;;;;;;8.02;99.36;98800.56;5065950;28;20021;-67
2023/11/23 01:28:24;;;;;;;0.40;0.40;;;;;;;8.01;99.89;98790.25;5048028;28;20389;-67
2023/11/23 01:30:49;;;;;;;0.40;0.40;;;;;;;8.05;99.80;98795.31;5047184;28;20067;-68
2023/11/23 01:33:15;;;;;;;1.85;1.75;;;;;;;7.98;100.00;98770.50;5065422;28;20032;-68
2023/11/23 01:35:40;;;;;;;0.30;0.30;;;;;;;8.03;100.00;98781.59;5065920;28;20029;-67
2023/11/23 01:38:06;;;;;;;1.20;1.20;;;;;;;8.03;100.00;98771.25;5065829;28;20027;-67
2023/11/23 01:40:31;;;;;;;0.40;0.40;;;;;;;8.01;100.00;98759.25;5065592;28;20033;-67
2023/11/23 01:43:01;;;;;;;0.30;0.30;;;;;;;8.14;100.00;98747.72;5065465;28;20101;-66
2023/11/23 01:45:26;;;;;;;0.35;0.35;;;;;;;8.12;100.00;98728.81;5065709;28;20049;-67
2023/11/23 01:47:51;;;;;;;0.60;0.60;;;;;;;8.10;100.00;98728.00;5065024;28;20071;-67
2023/11/23 01:50:19;;;;;;;0.40;0.40;;;;;;;8.17;100.00;98728.69;5065263;28;20075;-68
2023/11/23 01:52:45;;;;;;;0.40;0.40;;;;;;;8.17;100.00;98711.47;5065270;28;20384;-68
2023/11/23 01:55:12;;;;;;;0.30;0.30;;;;;;;8.19;100.00;98714.00;5046933;28;20047;-69
2023/11/23 01:57:39;;;;;;;0.40;0.40;;;;;;;8.26;100.00;98722.44;5065292;28;20027;-69
2023/11/23 02:00:05;;;;;;;0.30;0.30;;;;;;;8.23;100.00;98720.78;5064941;28;20027;-68
2023/11/23 02:02:30;;;;;;;0.30;0.30;;;;;;;8.22;100.00;98719.09;5065044;28;20488;-67
2023/11/23 02:05:05;;;;;;;0.40;0.40;;;;;;;8.23;100.00;98727.69;5065276;28;20036;-68
2023/11/23 02:07:32;;;;;;;7.13;1.38;;;;;;;8.24;100.00;98711.28;5064937;28;20051;-67
2023/11/23 02:09:58;;;;;;;0.95;0.43;;;;;;;8.19;100.00;98711.41;5064651;28;20021;-68
2023/11/23 02:12:24;;;;;;;0.93;0.60;;;;;;;8.24;100.00;98706.13;5065079;28;20090;-68
2023/11/23 02:14:54;;;;;;;0.57;0.47;;;;;;;8.27;100.00;98701.72;5065007;28;20055;-68
2023/11/23 02:17:20;;;;;;;0.40;0.40;;;;;;;8.30;100.00;98699.06;5064952;28;20025;-67
2023/11/23 02:19:47;;;;;;;0.40;0.40;;;;;;;8.36;99.77;98700.63;5064802;28;20031;-68
2023/11/23 02:22:14;;;;;;;0.30;0.30;;;;;;;8.30;99.96;98695.63;5065064;28;20028;-68
2023/11/23 02:24:39;;;;;;;2.45;0.93;;;;;;;8.28;99.60;98674.97;5064772;28;20025;-68
2023/11/23 02:27:07;;;;;;;1.30;1.05;;;;;;;8.43;99.22;98701.31;5064898;28;20085;-68
2023/11/23 02:29:32;;;;;;;1.05;0.60;;;;;;;8.45;99.20;98693.50;5064902;28;20048;-68
2023/11/23 02:31:58;;;;;;;1.33;0.75;;;;;;;8.42;99.33;98674.59;5064644;28;20029;-66
2023/11/23 02:34:24;;;;;;;9.45;0.85;;;;;;;8.43;99.16;98665.94;5064698;28;20029;-67
2023/11/23 02:36:49;;;;;;;1.55;0.90;;;;;;;8.46;98.94;98675.38;5064954;28;20032;-68
2023/11/23 02:39:14;;;;;;;1.60;1.00;;;;;;;8.46;98.63;98661.56;5064730;28;20028;-69
2023/11/23 02:41:40;;;;;;;8.68;0.95;;;;;;;8.39;98.61;98651.41;5064897;28;20067;-68
2023/11/23 02:44:05;;;;;;;3.95;2.00;;;;;;;8.45;98.74;98654.72;5046841;28;20017;-68
2023/11/23 02:46:31;;;;;;;3.38;1.40;;;;;;;8.46;98.39;98643.47;5046510;28;20021;-68
2023/11/23 02:48:57;;;;;;;3.10;1.15;;;;;;;8.36;98.74;98648.91;5064542;28;20079;-67
2023/11/23 02:51:22;;;;;;;2.22;1.15;;;;;;;8.39;98.55;98646.22;5065076;28;20032;-69
2023/11/23 02:53:48;;;;;;;4.20;1.13;;;;;;;8.37;98.66;98636.84;5064567;28;20104;-68
2023/11/23 02:56:17;;;;;;;1.60;1.02;;;;;;;8.40;99.20;98642.75;5064431;28;20053;-68
2023/11/23 02:58:42;;;;;;;0.40;0.40;;;;;;;8.41;98.96;98634.13;5046631;28;20036;-68
2023/11/23 03:01:08;;;;;;;2.67;0.45;;;;;;;8.43;99.00;98629.72;5064521;28;20025;-69
2023/11/23 03:03:33;;;;;;;6.07;0.93;;;;;;;8.44;99.02;98615.06;5064489;28;20021;-68
2023/11/23 03:06:00;;;;;;;1.17;0.52;;;;;;;8.39;99.29;98601.41;5064474;28;20059;-68
2023/11/23 03:08:25;;;;;;;3.40;0.75;;;;;;;8.38;99.44;98600.59;5046336;28;20045;-68
2023/11/23 03:10:52;;;;;;;3.67;0.85;;;;;;;8.41;99.18;98587.56;5064474;28;20059;-68
2023/11/23 03:13:18;;;;;;;2.40;0.60;;;;;;;8.42;99.35;98588.41;5064100;28;20025;-67
2023/11/23 03:15:44;;;;;;;2.42;0.60;;;;;;;8.49;98.96;98595.09;5064481;28;20021;-67
2023/11/23 03:18:09;;;;;;;1.10;0.90;;;;;;;8.54;99.14;98582.03;5063671;28;20122;-68
2023/11/23 03:20:35;;;;;;;7.25;1.15;;;;;;;8.52;99.23;98587.25;5064391;28;20025;-68
2023/11/23 03:23:00;;;;;;;0.90;0.60;;;;;;;8.54;98.42;98579.44;5066888;28;20028;-68
2023/11/23 03:25:25;;;;;;;0.40;0.40;;;;;;;8.57;97.89;98569.03;5068222;28;20505;-68
2023/11/23 03:27:51;;;;;;;1.05;0.70;;;;;;;8.58;97.44;98552.63;5050120;28;20025;-68
2023/11/23 03:30:16;;;;;;;1.35;0.82;;;;;;;8.51;97.84;98544.19;5067895;28;20025;-68
2023/11/23 03:32:42;;;;;;;1.95;1.10;;;;;;;8.59;97.32;98551.75;5067703;28;20562;-68
2023/11/23 03:35:07;;;;;;;0.30;0.30;;;;;;;8.50;97.31;98541.66;5067941;28;20033;-69
2023/11/23 03:37:33;;;;;;;0.73;0.73;;;;;;;8.58;96.27;98568.13;5067888;28;20024;-67
2023/11/23 03:39:58;;;;;;;1.25;0.90;;;;;;;8.60;96.03;98547.41;5067873;28;20025;-68
2023/11/23 03:42:23;;;;;;;1.13;0.70;;;;;;;8.51;95.82;98554.53;5067913;28;20028;-69
2023/11/23 03:44:49;;;;;;;12.65;1.65;;;;;;;8.64;95.69;98577.47;5067680;28;20025;-67
2023/11/23 03:47:14;;;;;;;3.50;0.95;;;;;;;8.73;95.65;98573.75;5067672;28;20089;-68
2023/11/23 03:49:39;;;;;;;7.03;1.00;;;;;;;8.68;96.03;98566.13;5049296;28;20492;-68
2023/11/23 03:52:05;;;;;;;1.00;0.98;;;;;;;8.63;95.69;98558.50;5067842;28;20028;-67
2023/11/23 03:54:30;;;;;;;4.53;1.05;;;;;;;8.62;95.76;98577.53;5068068;28;20499;-68
2023/11/23 03:56:57;;;;;;;3.33;1.33;;;;;;;8.60;95.41;98566.38;5067512;28;20024;-68
2023/11/23 03:59:23;;;;;;;10.30;0.75;;;;;;;8.63;95.30;98562.81;5067658;28;20071;-69
2023/11/23 04:01:48;;;;;;;3.00;0.88;;;;;;;8.64;95.58;98560.19;5067589;28;20377;-68
2023/11/23 04:04:14;;;;;;;17.10;1.33;;;;;;;8.59;95.68;98559.50;5067399;28;20080;-69
2023/11/23 04:06:40;;;;;;;0.95;0.82;;;;;;;8.57;95.36;98558.69;5067509;28;20053;-68
2023/11/23 04:09:06;;;;;;;6.53;0.95;;;;;;;8.59;95.30;98556.91;5066980;28;20078;-68
2023/11/23 04:11:31;;;;;;;0.50;0.50;;;;;;;8.47;95.30;98552.06;5049287;28;20048;-68
2023/11/23 04:13:57;;;;;;;2.47;1.27;;;;;;;8.50;94.60;98554.56;5048963;28;20033;-68
2023/11/23 04:16:22;;;;;;;17.90;2.53;;;;;;;8.54;94.86;98553.59;5067375;28;20029;-68
2023/11/23 04:18:47;;;;;;;3.33;1.70;;;;;;;8.42;94.70;98523.75;5067014;28;20021;-68
2023/11/23 04:21:14;;;;;;;11.93;1.65;;;;;;;8.53;94.30;98546.72;5067094;28;20028;-67
2023/11/23 04:23:40;;;;;;;5.55;3.05;;;;;;;8.56;94.27;98541.50;5066930;28;20017;-66
2023/11/23 04:26:05;;;;;;;1.50;0.75;;;;;;;8.53;93.86;98537.22;5067003;28;20077;-68
2023/11/23 04:28:31;;;;;;;2.45;1.75;;;;;;;8.56;93.93;98531.16;5067347;28;20032;-67
2023/11/23 04:30:56;;;;;;;0.45;0.45;;;;;;;8.65;93.31;98537.75;5066648;28;20461;-69
2023/11/23 04:33:22;;;;;;;10.40;0.95;;;;;;;8.56;93.15;98525.97;5048265;28;20053;-69
2023/11/23 04:35:48;;;;;;;3.85;0.95;;;;;;;8.58;92.99;98508.66;5066837;28;20025;-68
2023/11/23 04:38:14;;;;;;;0.82;0.82;;;;;;;8.51;92.65;98525.22;5048530;28;20028;-68
2023/11/23 04:40:39;;;;;;;3.00;2.67;;;;;;;8.64;92.09;98512.81;5066975;28;20017;-69
2023/11/23 04:43:05;;;;;;;4.88;2.20;;;;;;;8.52;92.28;98513.97;5048724;28;20440;-67
2023/11/23 04:45:30;;;;;;;8.70;1.58;;;;;;;8.50;92.50;98488.16;5066537;28;20059;-68
2023/11/23 04:47:56;;;;;;;15.25;2.33;;;;;;;8.54;92.69;98476.00;5066389;28;20021;-68
2023/11/23 04:50:21;;;;;;;1.63;0.75;;;;;;;8.57;92.30;98468.16;5066412;28;20100;-67
2023/11/23 04:52:47;;;;;;;5.90;2.10;;;;;;;8.54;92.20;98476.88;5066497;28;20456;-69
2023/11/23 04:55:12;;;;;;;7.22;2.15;;;;;;;8.59;92.01;98474.16;5066346;28;20031;-68
2023/11/23 04:57:37;;;;;;;5.45;1.85;;;;;;;8.59;91.62;98484.50;5066238;28;20528;-68
2023/11/23 05:00:04;;;;;;;6.00;1.35;;;;;;;8.62;91.58;98476.63;5066248;28;20481;-67
2023/11/23 05:02:29;;;;;;;2.92;1.10;;;;;;;8.65;91.69;98498.97;5066132;28;20013;-68
2023/11/23 05:04:55;;;;;;;9.73;2.40;;;;;;;8.61;91.67;98487.03;5066042;28;20029;-68
2023/11/23 05:07:20;;;;;;;4.03;1.88;;;;;;;8.59;91.47;98458.63;5048008;28;20021;-68
2023/11/23 05:09:46;;;;;;;12.45;2.70;;;;;;;8.47;91.69;98441.72;5065920;28;20048;-68
2023/11/23 05:12:11;;;;;;;1.02;0.98;;;;;;;8.50;91.83;98448.53;5066005;28;20021;-68
2023/11/23 05:14:36;;;;;;;0.98;0.70;;;;;;;8.47;92.07;98448.63;5065917;28;20027;-68
2023/11/23 05:17:02;;;;;;;1.02;0.95;;;;;;;8.38;91.89;98445.44;5066301;28;20028;-68
2023/11/23 05:19:27;;;;;;;4.60;2.25;;;;;;;8.41;92.15;98432.41;5047775;28;20021;-68
2023/11/23 05:21:52;;;;;;;9.18;1.85;;;;;;;8.38;92.16;98440.28;5065968;28;20021;-68
2023/11/23 05:24:18;;;;;;;17.42;2.10;;;;;;;8.44;92.26;98434.06;5065998;28;20021;-68
2023/11/23 05:26:43;;;;;;;0.40;0.40;;;;;;;8.46;92.53;98421.06;5065913;28;20024;-68
2023/11/23 05:29:08;;;;;;;1.45;1.38;;;;;;;8.41;92.55;98429.84;5065712;28;20071;-68
2023/11/23 05:31:34;;;;;;;11.70;1.63;;;;;;;8.40;92.90;98441.03;5065679;28;20051;-68
2023/11/23 05:33:59;;;;;;;2.58;1.27;;;;;;;8.35;92.64;98435.19;5065184;28;20369;-68
2023/11/23 05:36:24;;;;;;;8.35;2.53;;;;;;;8.37;92.57;98425.63;5064971;28;20028;-68
2023/11/23 05:38:50;;;;;;;3.55;2.45;;;;;;;8.43;92.50;98422.84;5065349;28;20025;-67
2023/11/23 05:41:15;;;;;;;4.88;2.38;;;;;;;8.43;92.50;98417.69;5065236;28;20098;-68
2023/11/23 05:43:43;;;;;;;2.63;1.33;;;;;;;8.41;92.54;98423.81;5065801;28;20079;-67
2023/11/23 05:46:09;;;;;;;6.53;2.75;;;;;;;8.51;91.71;98408.84;5064893;28;20024;-67
2023/11/23 05:48:34;;;;;;;7.93;2.08;;;;;;;8.43;91.81;98391.81;5047548;28;20020;-67
2023/11/23 05:50:59;;;;;;;3.22;1.88;;;;;;;8.33;92.03;98372.34;5065542;28;20166;-68
2023/11/23 05:53:25;;;;;;;11.20;1.45;;;;;;;8.31;92.43;98380.16;5065237;28;20048;-68
2023/11/23 05:55:50;;;;;;;1.17;1.13;;;;;;;8.29;92.45;98379.34;5065165;28;20036;-69
2023/11/23 05:58:15;;;;;;;15.85;2.58;;;;;;;8.33;92.25;98381.81;5065332;28;20035;-68
2023/11/23 06:00:42;;;;;;;3.63;1.17;;;;;;;8.24;92.30;98373.47;5065250;28;20025;-69
2023/11/23 06:03:07;;;;;;;8.00;2.50;;;;;;;8.26;92.68;98363.09;5047186;28;20024;-69
2023/11/23 06:05:32;;;;;;;6.32;2.75;;;;;;;8.25;92.84;98376.91;5065376;28;20053;-68
2023/11/23 06:07:58;;;;;;;3.15;0.73;;;;;;;8.27;92.67;98373.41;5065788;28;20044;-67
2023/11/23 06:10:23;;;;;;;6.82;1.95;;;;;;;8.21;92.78;98359.81;5065121;28;20021;-69
2023/11/23 06:12:49;;;;;;;13.73;1.70;;;;;;;8.26;92.94;98363.94;5065265;28;20049;-68
2023/11/23 06:15:24;;;;;;;2.38;1.75;;;;;;;8.28;92.80;98394.91;5047520;28;20017;-69
2023/11/23 06:17:49;;;;;;;3.55;2.13;;;;;;;8.30;92.77;98387.94;5064988;28;20025;-65
2023/11/23 06:20:14;;;;;;;6.80;1.25;;;;;;;8.38;92.58;98388.56;5065234;28;20032;-66
2023/11/23 06:22:40;;;;;;;1.52;1.42;;;;;;;8.40;92.58;98373.00;5065071;28;20017;-66
2023/11/23 06:25:05;;;;;;;7.60;2.03;;;;;;;8.35;92.69;98367.13;5064951;28;20036;-66
2023/11/23 06:27:33;;;;;;;1.83;1.38;;;;;;;8.30;91.87;98355.19;5064952;28;20025;-65
2023/11/23 06:29:59;;;;;;;6.95;1.42;;;;;;;8.35;91.78;98365.38;5064944;28;20044;-66
2023/11/23 06:32:24;;;;;;;8.00;1.33;;;;;;;8.31;91.95;98367.22;5064892;28;20029;-65
2023/11/23 06:34:49;;;;;;;4.68;2.55;;;;;;;8.26;91.78;98363.94;5064930;28;20021;-65
2023/11/23 06:37:14;;;;;;;4.45;1.85;;;;;;;8.22;91.18;98357.19;5064942;28;20300;-65
2023/11/23 06:39:40;;;;;;;14.48;1.80;;;;;;;8.29;91.32;98353.50;5064820;28;20036;-66
2023/11/23 06:42:05;;;;;;;5.53;1.90;;;;;;;8.27;91.77;98369.94;5064782;28;20072;-66
2023/11/23 06:44:31;;;;;;;7.57;3.58;;;;;;;8.26;91.40;98347.59;5064919;28;20025;-65
2023/11/23 06:46:56;;;;;;;7.72;2.25;;;;;;;8.29;91.41;98369.00;5064906;28;20017;-66
2023/11/23 06:49:22;;;;;;;0.40;0.40;;;;;;;8.37;91.10;98365.34;5046686;28;20024;-66
2023/11/23 06:51:47;;;;;;;1.45;1.25;;;;;;;8.29;91.04;98379.34;5046865;28;20028;-65
2023/11/23 06:54:12;;;;;;;2.92;1.58;;;;;;;8.27;91.27;98357.03;5064801;28;20021;-66
2023/11/23 06:56:38;;;;;;;16.77;2.83;;;;;;;8.28;90.95;98346.63;5048842;28;20032;-66
2023/11/23 06:59:03;;;;;;;20.52;2.75;;;;;;;8.29;90.90;98342.31;5051076;28;20117;-66
2023/11/23 07:01:29;;;;;;;18.38;1.90;;;;;;;8.31;91.01;98336.19;5050774;28;20017;-66
2023/11/23 07:03:54;;;;;;;5.90;2.53;;;;;;;8.35;90.75;98346.44;5068730;28;20021;-67
2023/11/23 07:06:23;;;;;;;6.90;1.55;;;;;;;8.29;91.17;98329.41;5068845;28;20021;-65
2023/11/23 07:08:52;;;;;;;7.95;2.75;;;;;;;8.27;90.43;98328.59;5068646;28;20051;-64
2023/11/23 07:11:18;;;;;;;8.93;1.38;;;;;;;8.27;90.76;98336.34;5050799;28;20052;-65
2023/11/23 07:13:45;;;;;;;12.88;2.55;;;;;;;8.27;90.82;98320.84;5068494;28;20028;-66
2023/11/23 07:16:12;;;;;;;5.13;2.63;;;;;;;8.28;90.82;98312.16;5068468;28;20381;-66
2023/11/23 07:18:38;;;;;;;3.05;1.80;;;;;;;8.31;90.18;98292.25;5068563;28;20040;-66
2023/11/23 07:21:04;;;;;;;5.22;2.13;;;;;;;8.36;90.61;98278.31;5068565;28;20024;-66
2023/11/23 07:23:29;;;;;;;7.13;2.78;;;;;;;8.27;90.78;98288.09;5068549;28;20021;-66
2023/11/23 07:25:54;;;;;;;0.52;0.52;;;;;;;8.28;90.46;98284.59;5050442;28;20025;-65
2023/11/23 07:28:25;;;;;;;1.35;0.73;;;;;;;8.20;90.51;98281.41;5050508;28;20039;-66
2023/11/23 07:30:51;;;;;;;2.38;1.13;;;;;;;8.30;88.56;98275.06;5068521;28;20020;-65
2023/11/23 07:33:17;;;;;;;4.68;2.30;;;;;;;8.23;88.26;98283.03;5068173;28;20021;-66
2023/11/23 07:35:46;;;;;;;0.80;0.80;;;;;;;8.21;88.28;98269.34;5068465;28;20078;-66
2023/11/23 07:38:12;;;;;;;1.35;0.85;;;;;;;8.19;88.31;98271.97;5050139;28;20032;-65
2023/11/23 07:40:38;;;;;;;2.33;2.13;;;;;;;8.19;88.22;98261.63;5068175;28;20127;-66
2023/11/23 07:43:04;;;;;;;19.50;2.75;;;;;;;8.19;88.01;98275.38;5068098;28;20021;-66
2023/11/23 07:45:30;;;;;;;25.88;2.03;;;;;;;8.17;87.92;98269.44;5067963;28;20080;-64
2023/11/23 07:47:55;;;;;;;3.53;1.38;;;;;;;8.14;87.89;98272.13;5067848;28;20036;-66
2023/11/23 07:50:21;;;;;;;1.45;1.38;;;;;;;8.22;87.44;98294.28;5068134;28;20029;-65
2023/11/23 07:52:46;;;;;;;1.88;1.70;;;;;;;8.25;87.37;98295.03;5067940;28;20025;-64
2023/11/23 07:55:15;;;;;;;18.63;3.63;;;;;;;8.28;87.45;98279.41;5067949;28;20396;-66
2023/11/23 07:57:42;;;;;;;6.90;2.05;;;;;;;8.30;87.48;98245.75;5049812;28;20025;-66
2023/11/23 08:00:08;;;;;;;0.82;0.82;;;;;;;8.35;87.95;98258.53;5049728;28;20412;-65
2023/11/23 08:02:33;;;;;;;5.78;2.60;;;;;;;8.35;88.16;98249.03;5067770;28;20021;-65
2023/11/23 08:04:59;;;;;;;1.58;0.65;;;;;;;8.37;88.03;98220.53;5067801;28;20028;-66
2023/11/23 08:07:25;;;;;;;10.57;2.75;;;;;;;8.42;87.84;98235.00;5048910;28;20027;-65
2023/11/23 08:09:51;;;;;;;15.55;2.70;;;;;;;8.43;88.03;98213.41;5049385;28;20044;-66
2023/11/23 08:12:18;;;;;;;7.40;1.95;;;;;;;8.35;88.18;98187.00;5049638;28;20084;-65
2023/11/23 08:14:43;;;;;;;7.15;3.42;;;;;;;8.45;88.31;98181.50;5067659;28;20036;-66
2023/11/23 08:17:08;;;;;;;8.30;3.15;;;;;;;8.42;88.32;98201.38;5067569;28;20029;-64
2023/11/23 08:19:34;;;;;;;8.18;2.63;;;;;;;8.41;87.63;98194.53;5067539;28;20171;-64
2023/11/23 08:22:00;;;;;;;2.83;1.52;;;;;;;8.39;87.52;98178.22;5067655;28;20028;-65
2023/11/23 08:24:25;;;;;;;8.35;1.55;;;;;;;8.36;86.94;98180.91;5067604;28;20076;-65
2023/11/23 08:26:52;;;;;;;6.70;3.63;;;;;;;8.43;86.86;98186.72;5067328;28;20056;-66
2023/11/23 08:29:18;;;;;;;12.07;3.80;;;;;;;8.42;87.00;98172.06;5067439;28;20021;-65
2023/11/23 08:31:44;;;;;;;3.88;1.83;;;;;;;8.38;86.87;98163.59;5067050;28;20060;-65
2023/11/23 08:34:10;;;;;;;3.85;1.77;;;;;;;8.49;86.10;98177.88;5067012;28;20021;-66
2023/11/23 08:36:36;;;;;;;0.63;0.63;;;;;;;8.40;86.07;98189.41;5066990;28;20040;-65
2023/11/23 08:39:02;;;;;;;6.50;1.63;;;;;;;8.37;85.86;98208.44;5067075;28;20039;-64
2023/11/23 08:41:30;;;;;;;10.90;2.50;;;;;;;8.36;85.05;98211.94;5066907;28;20025;-65
2023/11/23 08:43:55;;;;;;;1.33;1.25;;;;;;;8.38;84.64;98186.88;5067021;28;20114;-65
2023/11/23 08:46:21;;;;;;;8.82;2.88;;;;;;;8.37;83.83;98208.44;5049023;28;20089;-65
2023/11/23 08:48:46;;;;;;;7.35;2.05;;;;;;;8.38;83.67;98189.47;5066504;28;20024;-65
2023/11/23 08:51:12;;;;;;;2.75;1.33;;;;;;;8.33;83.72;98183.59;5048909;28;20047;-64
2023/11/23 08:53:37;;;;;;;15.40;3.00;;;;;;;8.38;83.15;98181.72;5066677;28;20089;-66
2023/11/23 08:56:03;;;;;;;3.90;2.42;;;;;;;8.43;81.93;98164.25;5048281;28;20472;-65
2023/11/23 08:58:28;;;;;;;9.45;1.60;;;;;;;8.32;81.89;98179.34;5066786;28;20025;-65
2023/11/23 09:00:53;;;;;;;15.38;3.25;;;;;;;8.37;82.00;98185.16;5066537;28;20032;-66
2023/11/23 09:03:19;;;;;;;13.75;1.65;;;;;;;8.34;82.12;98205.97;5048398;28;20032;-64
2023/11/23 09:05:44;;;;;;;1.38;1.30;;;;;;;8.37;82.08;98186.94;5066398;28;20025;-65
2023/11/23 09:08:09;;;;;;;4.07;1.70;;;;;;;8.39;82.24;98188.56;5066072;28;20051;-66
2023/11/23 09:10:35;;;;;;;1.40;1.30;;;;;;;8.43;81.57;98199.66;5066310;28;20035;-64
2023/11/23 09:13:01;;;;;;;0.57;0.57;;;;;;;8.42;81.65;98183.28;5066319;28;20025;-66
2023/11/23 09:15:30;;;;;;;7.13;1.98;;;;;;;8.39;81.11;98185.97;5066356;28;20027;-65
2023/11/23 09:17:56;;;;;;;10.05;2.25;;;;;;;8.45;80.65;98181.50;5066186;28;20053;-66
2023/11/23 09:20:21;;;;;;;4.57;3.13;;;;;;;8.51;80.39;98189.03;5065070;28;20029;-65
2023/11/23 09:22:47;;;;;;;1.05;0.80;;;;;;;8.52;80.12;98182.94;5066365;28;20021;-67
2023/11/23 09:25:13;;;;;;;2.17;1.25;;;;;;;8.48;79.42;98155.53;5066161;28;20025;-66
2023/11/23 09:27:39;;;;;;;8.63;1.80;;;;;;;8.55;79.41;98177.69;5066020;28;20464;-65
2023/11/23 09:30:08;;;;;;;34.45;1.85;;;;;;;8.63;78.56;98160.16;5065939;28;20048;-65
2023/11/23 09:32:36;;;;;;;0.70;0.45;;;;;;;8.63;78.96;98196.38;5065792;28;20027;-65
2023/11/23 09:35:03;;;;;;;9.25;0.77;;;;;;;8.71;78.94;98192.66;5065850;28;20489;-66
2023/11/23 09:37:28;;;;;;;3.20;2.13;;;;;;;8.64;79.29;98181.69;5065997;28;20025;-64
2023/11/23 09:39:53;;;;;;;10.80;5.47;;;;;;;8.64;79.44;98181.69;5065840;28;20036;-65
2023/11/23 09:42:20;;;;;;;8.18;2.55;;;;;;;8.71;78.53;98182.31;5065730;28;20028;-65
2023/11/23 09:44:46;;;;;;;3.13;0.90;;;;;;;8.75;78.83;98183.91;5065798;28;20029;-65
2023/11/23 09:47:15;;;;;;;10.05;2.35;;;;;;;8.81;78.26;98170.72;5065701;28;20036;-65
2023/11/23 09:49:41;;;;;;;12.73;2.22;;;;;;;8.85;77.13;98151.59;5065470;28;20080;-66
2023/11/23 09:52:07;;;;;;;6.53;1.05;;;;;;;8.80;76.62;98132.81;5065423;28;20086;-66
2023/11/23 09:54:33;;;;;;;3.05;1.05;;;;;;;8.72;75.95;98140.03;5065630;28;20347;-65
2023/11/23 09:56:59;;;;;;;1.65;1.55;;;;;;;8.68;75.59;98157.41;5047585;28;20025;-66
2023/11/23 09:59:26;;;;;;;1.77;0.90;;;;;;;8.66;75.50;98160.03;5065642;28;20041;-65
2023/11/23 10:01:58;;;;;;;9.85;1.30;;;;;;;8.57;75.50;98097.47;5047059;28;20071;-65
2023/11/23 10:04:24;;;;;;;5.47;1.42;;;;;;;8.50;75.94;98123.53;5065561;28;20021;-67
2023/11/23 10:06:50;;;;;;;3.35;1.83;;;;;;;8.56;76.03;98114.75;5065632;28;20021;-65
2023/11/23 10:09:16;;;;;;;4.97;0.77;;;;;;;8.48;76.10;98116.72;5065180;28;20555;-65
2023/11/23 10:11:42;;;;;;;4.75;2.10;;;;;;;8.48;76.04;98106.38;5065329;28;20031;-65
2023/11/23 10:14:08;;;;;;;1.77;0.95;;;;;;;8.35;76.37;98098.22;5047377;28;20025;-65
2023/11/23 10:16:34;;;;;;;11.15;1.52;;;;;;;8.26;76.24;98110.59;5065256;28;20024;-66
2023/11/23 10:18:59;;;;;;;4.78;3.35;;;;;;;8.26;76.38;98076.16;5064980;28;20032;-65
2023/11/23 10:21:24;;;;;;;7.85;3.20;;;;;;;8.23;76.39;98066.75;5046888;28;20025;-65
2023/11/23 10:23:50;;;;;;;0.95;0.63;;;;;;;8.13;76.32;98084.34;5065187;28;20020;-66
2023/11/23 10:26:16;;;;;;;5.82;2.45;;;;;;;8.22;76.07;98080.59;5065079;28;20032;-66
2023/11/23 10:28:41;;;;;;;1.55;1.02;;;;;;;8.18;76.09;98079.00;5065203;28;20036;-64
2023/11/23 10:31:07;;;;;;;1.38;0.52;;;;;;;8.13;76.37;98068.81;5064840;28;20032;-65
2023/11/23 10:33:36;;;;;;;5.30;1.27;;;;;;;8.13;76.14;98088.69;5064860;28;20025;-66
2023/11/23 10:36:06;;;;;;;0.80;0.80;;;;;;;8.26;75.96;98071.00;5064986;28;20024;-65
2023/11/23 10:38:40;;;;;;;21.67;1.55;;;;;;;8.29;76.53;98063.94;5064923;28;20025;-65
2023/11/23 10:41:09;;;;;;;14.25;2.00;;;;;;;8.36;76.61;98046.47;5064500;28;20561;-65
2023/11/23 10:43:40;;;;;;;6.57;1.48;;;;;;;8.36;76.60;98054.22;5064876;28;20013;-65
2023/11/23 10:46:11;;;;;;;0.90;0.90;;;;;;;8.52;76.14;98053.63;5064815;28;20027;-64
2023/11/23 10:48:38;;;;;;;8.48;2.78;;;;;;;8.77;75.87;98048.41;5064552;28;20112;-65
2023/11/23 10:51:05;;;;;;;1.58;1.48;;;;;;;9.12;74.81;98053.06;5046587;28;20055;-65
2023/11/23 10:53:31;;;;;;;2.22;1.75;;;;;;;9.34;72.81;98052.22;5064876;28;20025;-66
2023/11/23 10:56:10;;;;;;;39.15;2.63;;;;;;;9.34;73.10;98054.78;5064640;28;20063;-65
2023/11/23 10:58:38;;;;;;;2.65;2.40;;;;;;;9.22;72.52;98027.66;5064722;28;20041;-65
2023/11/23 11:01:09;;;;;;;2.22;1.42;;;;;;;8.98;72.62;98058.81;5064575;28;20041;-65
2023/11/23 11:03:36;;;;;;;14.40;2.95;;;;;;;8.88;73.81;98060.09;5046271;28;20025;-66
2023/11/23 11:06:08;;;;;;;4.25;1.33;;;;;;;8.74;73.98;98027.00;5064634;28;20027;-64
2023/11/23 11:08:37;;;;;;;13.18;5.10;;;;;;;8.65;74.52;98041.97;5064199;28;20052;-66
2023/11/23 11:11:12;;;;;;;4.07;1.77;;;;;;;8.66;74.86;98035.88;5064178;28;20028;-66
2023/11/23 11:13:44;;;;;;;1.98;1.83;;;;;;;8.53;74.98;98021.72;5064454;28;20017;-65
2023/11/23 11:16:14;;;;;;;;;;;;;;;8.62;74.51;98011.06;5064794;28;20031;-65
2023/11/23 11:18:48;;;;;;;7.40;2.58;;;;;;;8.42;75.18;98020.38;5064446;28;20276;-66
2023/11/23 11:21:17;;;;;;;1.38;1.17;;;;;;;8.36;75.36;98023.19;5064463;28;20487;-65
2023/11/23 11:23:44;;;;;;;6.32;1.23;;;;;;;8.27;75.70;97984.78;5064405;28;20085;-66
2023/11/23 11:26:12;;;;;;;3.13;1.85;;;;;;;8.34;75.52;97965.53;5046614;28;20059;-65
2023/11/23 11:28:39;;;;;;;2.33;1.42;;;;;;;8.26;75.34;97946.91;5064387;28;20029;-66
2023/11/23 11:31:06;;;;;;;1.23;0.80;;;;;;;8.27;74.43;97943.41;5064357;28;20032;-66
2023/11/23 11:33:32;;;;;;;3.38;0.68;;;;;;;8.26;74.13;97944.31;5064063;28;20033;-66